Time;durP1;ratioP1;P1;durP2;ratioP2;P2;SDS_P1;SDS_P2;PMS_P1;PMS_P2;Temp;Humidity;BMP_temperature;BMP_pressure;BME280_temperature;BME280_humidity;BME280_pressure;Samples;Min_cycle;Max_cycle;Signal;HPM_P1;HPM_P2
2021/12/29 00:02:27;;;;;;;27.42;5.40;;;6.70;99.90;;;;;;6252035;22;20031;-93
2021/12/29 00:04:58;;;;;;;22.25;5.53;;;6.80;99.90;;;;;;6215469;23;20056;-94
2021/12/29 00:07:25;;;;;;;37.92;6.53;;;6.80;99.90;;;;;;6264355;22;20016;-94
2021/12/29 00:09:55;;;;;;;37.22;6.97;;;6.80;99.90;;;;;;6270298;22;20023;-94
2021/12/29 00:12:25;;;;;;;46.50;6.25;;;6.80;99.90;;;;;;6247264;22;20027;-94
2021/12/29 00:14:52;;;;;;;32.67;6.63;;;6.80;99.90;;;;;;6239728;22;20054;-95
2021/12/29 00:17:18;;;;;;;50.05;7.20;;;6.90;99.90;;;;;;6238699;22;20465;-95
2021/12/29 00:19:44;;;;;;;46.13;6.88;;;6.80;99.90;;;;;;6236626;22;20027;-94
2021/12/29 00:22:10;;;;;;;38.50;6.32;;;6.90;99.90;;;;;;6260833;22;20016;-94
2021/12/29 00:24:35;;;;;;;39.85;6.72;;;6.90;99.90;;;;;;6242625;22;20008;-93
2021/12/29 00:27:04;;;;;;;36.90;6.95;;;6.90;99.90;;;;;;6270368;22;20020;-94
2021/12/29 00:29:30;;;;;;;54.28;7.57;;;6.90;99.90;;;;;;6240117;22;20066;-94
2021/12/29 00:31:58;;;;;;;46.03;7.22;;;6.80;99.90;;;;;;6266253;22;20092;-94
2021/12/29 00:34:24;;;;;;;47.30;8.07;;;6.70;99.90;;;;;;6260735;22;20035;-94
2021/12/29 00:36:57;;;;;;;52.80;7.88;;;7.00;99.90;;;;;;6260612;22;20023;-95
2021/12/29 00:39:29;;;;;;;56.35;7.82;;;7.00;99.90;;;;;;6272112;22;20039;-96
2021/12/29 00:41:55;;;;;;;59.05;8.10;;;7.30;99.90;;;;;;6287880;22;20019;-94
2021/12/29 00:44:21;;;;;;;58.45;7.78;;;7.00;99.90;;;;;;6288154;22;20019;-95
2021/12/29 00:46:52;;;;;;;557.10;47.58;;;7.00;99.90;;;;;;6257448;22;20047;-95
2021/12/29 00:49:21;;;;;;;76.45;8.95;;;7.20;99.90;;;;;;6265731;22;20020;-95
2021/12/29 00:51:50;;;;;;;70.93;10.13;;;7.30;99.90;;;;;;6265954;22;20347;-94
2021/12/29 00:56:54;;;;;;;84.75;9.77;;;7.00;99.90;;;;;;6263573;22;20008;-94
2021/12/29 01:02:19;;;;;;;103.57;9.52;;;7.00;99.90;;;;;;6120142;23;20022;-94
2021/12/29 01:04:51;;;;;;;93.05;9.48;;;7.00;99.90;;;;;;6092345;23;20028;-95
2021/12/29 01:07:51;;;;;;;97.20;10.00;;;7.10;99.90;;;;;;6165268;22;20068;31
2021/12/29 01:10:24;;;;;;;99.03;9.05;;;7.00;99.90;;;;;;6237433;23;20024;-94
2021/12/29 01:12:58;;;;;;;;;;;6.90;99.90;;;;;;6237214;22;20011;-95
2021/12/29 01:29:12;;;;;;;108.50;10.40;;;7.10;99.90;;;;;;6246242;22;19943;31
2021/12/29 01:31:43;;;;;;;90.65;10.98;;;7.10;99.90;;;;;;6161549;22;20043;-94
2021/12/29 01:41:03;;;;;;;72.47;9.27;;;7.10;99.90;;;;;;6234595;22;21226;-92
2021/12/29 01:44:16;;;;;;;105.90;10.20;;;7.10;99.90;;;;;;6218577;22;20024;31
2021/12/29 01:46:46;;;;;;;98.88;9.23;;;7.10;99.90;;;;;;6192847;22;20058;-95
2021/12/29 01:49:38;;;;;;;61.75;7.90;;;7.10;99.90;;;;;;6206192;22;20024;-93
2021/12/29 01:52:27;;;;;;;58.45;7.32;;;7.20;99.90;;;;;;6213181;23;20035;-93
2021/12/29 01:54:53;;;;;;;45.33;6.82;;;7.20;99.90;;;;;;6185457;23;20019;-95
2021/12/29 01:57:20;;;;;;;57.95;7.10;;;7.20;99.90;;;;;;6210253;23;20028;-96
2021/12/29 01:59:49;;;;;;;53.70;7.68;;;7.20;99.90;;;;;;6162183;23;20025;-95
2021/12/29 02:02:25;;;;;;;51.85;7.00;;;7.20;99.90;;;;;;6162035;23;20012;-94
2021/12/29 02:04:51;;;;;;;45.83;7.80;;;7.20;99.90;;;;;;6165249;23;20013;-96
2021/12/29 02:07:17;;;;;;;55.25;7.88;;;7.40;99.90;;;;;;6183046;23;20032;-95
2021/12/29 02:09:43;;;;;;;73.05;8.65;;;7.30;99.90;;;;;;6179533;23;20025;-96
2021/12/29 02:12:09;;;;;;;59.40;9.30;;;7.50;99.90;;;;;;6172146;23;20021;-95
2021/12/29 02:17:20;;;;;;;56.90;9.00;;;7.30;99.90;;;;;;6264959;22;20024;-94
2021/12/29 02:20:02;;;;;;;73.47;10.68;;;7.30;99.90;;;;;;6235047;23;20022;-95
2021/12/29 02:22:44;;;;;;;66.35;10.73;;;7.40;99.90;;;;;;6231111;22;20024;-92
2021/12/29 02:27:49;;;;;;;86.13;12.07;;;7.40;99.90;;;;;;6209593;23;20033;-95
2021/12/29 02:30:17;;;;;;;76.90;11.40;;;7.30;99.90;;;;;;6174178;23;20056;-95
2021/12/29 02:32:46;;;;;;;81.70;11.55;;;7.40;99.90;;;;;;6177035;23;20028;-94
2021/12/29 02:35:15;;;;;;;67.32;12.02;;;7.50;99.90;;;;;;6199509;23;20021;-94
2021/12/29 02:37:40;;;;;;;46.47;10.95;;;7.50;99.90;;;;;;6171900;23;20048;-95
2021/12/29 02:40:11;;;;;;;65.68;12.88;;;7.50;99.90;;;;;;6169781;23;20035;-94
2021/12/29 02:42:41;;;;;;;74.65;14.52;;;7.60;99.90;;;;;;6169390;23;20345;-92
2021/12/29 02:45:20;;;;;;;79.85;14.50;;;7.70;99.90;;;;;;6172854;23;20071;-94
2021/12/29 02:47:46;;;;;;;87.00;16.25;;;7.70;99.90;;;;;;6176811;23;20024;-94
2021/12/29 02:50:21;;;;;;;88.20;18.10;;;7.70;99.90;;;;;;6186057;23;20021;-95
2021/12/29 02:52:50;;;;;;;75.68;18.05;;;7.70;99.90;;;;;;6189286;23;20040;-94
2021/12/29 02:55:18;;;;;;;74.28;17.80;;;7.70;99.90;;;;;;6191632;23;20021;-95
2021/12/29 02:57:47;;;;;;;84.13;18.33;;;7.70;99.90;;;;;;6167048;23;20100;-93
2021/12/29 03:00:15;;;;;;;84.95;18.45;;;7.90;99.90;;;;;;6195914;23;20021;-95
2021/12/29 03:02:41;;;;;;;93.18;18.13;;;7.70;99.90;;;;;;6200175;23;20100;-94
2021/12/29 03:05:07;;;;;;;78.65;18.40;;;7.90;99.90;;;;;;6174718;23;20045;-96
2021/12/29 03:07:32;;;;;;;77.55;18.15;;;7.70;99.90;;;;;;6192260;23;20017;-94
2021/12/29 03:10:01;;;;;;;76.32;17.95;;;7.70;99.90;;;;;;6198949;23;20017;-96
2021/12/29 03:12:27;;;;;;;83.78;18.60;;;7.80;99.90;;;;;;6198439;23;20346;-96
2021/12/29 03:14:56;;;;;;;70.45;17.63;;;7.80;99.90;;;;;;6202089;23;20076;-92
2021/12/29 03:17:22;;;;;;;69.57;17.85;;;7.70;99.90;;;;;;6166698;23;20027;-95
2021/12/29 03:19:48;;;;;;;78.60;17.65;;;8.00;99.90;;;;;;6170010;23;20044;-93
2021/12/29 03:22:16;;;;;;;89.93;18.35;;;7.70;99.90;;;;;;6205539;23;20017;-92
2021/12/29 03:24:45;;;;;;;125.57;19.02;;;7.70;99.90;;;;;;6201740;23;20025;-94
2021/12/29 03:27:11;;;;;;;78.43;16.80;;;8.00;99.90;;;;;;6216957;22;20059;-95
2021/12/29 03:29:39;;;;;;;75.95;17.38;;;7.70;99.90;;;;;;6239257;23;20102;-92
2021/12/29 03:32:08;;;;;;;68.80;15.80;;;7.70;99.90;;;;;;6230502;23;20020;-93
2021/12/29 03:34:34;;;;;;;56.85;16.40;;;7.70;99.90;;;;;;6222624;23;20022;-94
2021/12/29 03:37:00;;;;;;;56.88;14.95;;;7.70;99.90;;;;;;6228672;23;20016;-94
2021/12/29 03:39:27;;;;;;;85.63;17.08;;;8.00;99.90;;;;;;6241716;22;20020;-96
2021/12/29 03:41:54;;;;;;;62.55;15.57;;;7.90;99.90;;;;;;6217710;23;20024;-94
2021/12/29 03:44:21;;;;;;;68.10;14.68;;;7.90;99.90;;;;;;6219076;22;20115;-95
2021/12/29 03:46:59;;;;;;;65.57;14.68;;;7.70;99.90;;;;;;6203002;23;20471;-95
2021/12/29 03:49:28;;;;;;;66.82;14.75;;;7.70;99.90;;;;;;6226570;23;20447;-93
2021/12/29 03:52:05;;;;;;;50.50;14.25;;;7.70;99.90;;;;;;6221834;23;20095;-95
2021/12/29 03:54:43;;;;;;;52.28;14.48;;;7.70;99.90;;;;;;6247103;23;20023;-92
2021/12/29 03:57:14;;;;;;;58.97;15.57;;;7.70;99.90;;;;;;6223023;23;20456;-94
2021/12/29 03:59:43;;;;;;;58.65;14.70;;;7.60;99.90;;;;;;6220854;23;20016;-93
2021/12/29 04:02:08;;;;;;;76.30;15.90;;;7.60;99.90;;;;;;6198404;23;20023;-96
2021/12/29 04:04:38;;;;;;;62.05;14.45;;;7.60;99.90;;;;;;6226185;23;20452;-92
2021/12/29 04:07:04;;;;;;;65.18;16.15;;;7.70;99.90;;;;;;6227819;23;20016;-94
2021/12/29 04:09:32;;;;;;;63.83;15.43;;;7.70;99.90;;;;;;6229761;23;20024;-95
2021/12/29 04:12:00;;;;;;;73.47;16.77;;;7.70;99.90;;;;;;6201036;23;20086;-93
2021/12/29 04:14:49;;;;;;;81.65;18.55;;;7.60;99.90;;;;;;6228546;23;20024;-95
2021/12/29 04:17:25;;;;;;;102.07;18.92;;;7.50;99.90;;;;;;6259209;23;20021;-95
2021/12/29 04:22:42;;;;;;;91.80;18.40;;;7.60;99.90;;;;;;6223552;23;20024;-94
2021/12/29 04:25:12;;;;;;;88.15;18.30;;;7.60;99.90;;;;;;6248118;23;20042;-91
2021/12/29 04:27:39;;;;;;;93.38;18.95;;;7.60;99.90;;;;;;6221474;23;20016;-93
2021/12/29 04:30:06;;;;;;;70.35;16.98;;;7.60;99.90;;;;;;6190855;23;20020;-95
2021/12/29 04:32:52;;;;;;;73.82;18.02;;;7.60;99.90;;;;;;6216746;23;20025;-94
2021/12/29 04:35:40;;;;;;;60.28;16.40;;;7.70;99.90;;;;;;6196035;23;20101;-93
2021/12/29 04:38:10;;;;;;;88.22;18.73;;;7.60;99.90;;;;;;6215681;23;20031;-95
2021/12/29 04:40:51;;;;;;;63.80;16.83;;;7.60;99.90;;;;;;6216370;23;20108;-92
2021/12/29 04:43:19;;;;;;;70.10;19.27;;;7.50;99.90;;;;;;6188629;23;20155;-93
2021/12/29 04:45:47;;;;;;;84.18;19.85;;;7.50;99.90;;;;;;6115216;23;20024;-94
2021/12/29 04:48:16;;;;;;;82.60;18.77;;;7.50;99.90;;;;;;6192190;23;20032;-94
2021/12/29 04:50:53;;;;;;;92.35;20.13;;;7.50;99.90;;;;;;6215556;23;20024;-96
2021/12/29 04:53:24;;;;;;;85.50;20.40;;;7.50;99.90;;;;;;6190161;23;20025;-94
2021/12/29 04:55:54;;;;;;;81.03;20.67;;;7.50;99.90;;;;;;6190393;23;20099;-94
2021/12/29 04:58:25;;;;;;;108.63;21.55;;;7.50;99.90;;;;;;6193024;23;20031;-94
2021/12/29 05:00:53;;;;;;;103.20;21.70;;;7.50;99.90;;;;;;6170442;23;20059;-94
2021/12/29 05:03:19;;;;;;;79.78;20.00;;;7.50;99.90;;;;;;6169953;23;20024;-94
2021/12/29 05:08:24;;;;;;;91.05;21.17;;;7.50;99.90;;;;;;6216740;23;20127;-94
2021/12/29 05:08:48;;;;;;;109.38;22.23;;;7.50;99.90;;;;;;6224568;23;20471;-95
2021/12/29 05:11:16;;;;;;;106.22;22.00;;;7.40;99.90;;;;;;6205279;23;20048;-94
2021/12/29 05:13:46;;;;;;;92.63;20.60;;;7.50;99.90;;;;;;6227342;23;20024;-96
2021/12/29 05:16:12;;;;;;;74.63;19.67;;;7.50;99.90;;;;;;6225800;23;20020;-93
2021/12/29 05:18:38;;;;;;;125.28;21.42;;;7.50;99.90;;;;;;6250903;23;20027;-95
2021/12/29 05:21:10;;;;;;;135.90;21.30;;;7.50;99.90;;;;;;6229894;23;20024;-94
2021/12/29 05:23:36;;;;;;;68.15;16.77;;;7.50;99.90;;;;;;6203233;23;20020;-94
2021/12/29 05:26:12;;;;;;;92.28;18.10;;;7.50;99.90;;;;;;6226543;23;20441;-94
2021/12/29 05:28:41;;;;;;;68.78;16.60;;;7.60;99.90;;;;;;6231419;23;20031;-95
2021/12/29 05:31:08;;;;;;;188.85;27.13;;;7.60;99.90;;;;;;6225837;23;20113;-94
2021/12/29 05:33:41;;;;;;;81.87;17.47;;;7.50;99.90;;;;;;6179212;23;20024;-96
2021/12/29 05:36:08;;;;;;;75.93;17.17;;;7.60;99.90;;;;;;6231212;23;20052;-95
2021/12/29 05:38:35;;;;;;;72.32;15.88;;;7.60;99.90;;;;;;6231151;23;20075;-94
2021/12/29 05:41:01;;;;;;;78.65;17.30;;;7.60;99.90;;;;;;6237886;23;20024;-95
2021/12/29 05:43:28;;;;;;;90.30;17.58;;;7.60;99.90;;;;;;6217801;23;20008;-93
2021/12/29 05:45:56;;;;;;;100.72;18.10;;;7.60;99.90;;;;;;6215858;22;20043;-94
2021/12/29 05:48:25;;;;;;;112.93;18.65;;;7.60;99.90;;;;;;6236550;23;20020;-96
2021/12/29 05:50:53;;;;;;;103.75;18.63;;;7.60;99.90;;;;;;6239076;23;20091;-94
2021/12/29 05:53:30;;;;;;;87.40;18.65;;;7.60;99.90;;;;;;6258643;23;20063;-95
2021/12/29 05:56:04;;;;;;;95.72;18.02;;;7.60;99.90;;;;;;6213742;23;20031;-95
2021/12/29 05:58:34;;;;;;;89.72;18.27;;;7.60;99.90;;;;;;6192999;23;20032;-93
2021/12/29 06:06:59;;;;;;;82.22;17.30;;;7.60;99.90;;;;;;6255068;22;20031;-95
2021/12/29 06:12:35;;;;;;;147.65;21.55;;;7.60;99.90;;;;;;6201853;23;20021;-93
2021/12/29 06:15:06;;;;;;;120.88;19.38;;;7.60;99.90;;;;;;6179418;23;20025;-94
2021/12/29 06:17:40;;;;;;;93.65;18.27;;;7.60;99.90;;;;;;6177177;23;20108;-96
2021/12/29 06:20:13;;;;;;;63.65;16.15;;;7.60;99.90;;;;;;6129738;23;20017;-95
2021/12/29 06:22:40;;;;;;;87.97;18.08;;;7.60;99.90;;;;;;6152635;23;20033;-94
2021/12/29 06:25:07;;;;;;;76.45;16.83;;;7.90;99.90;;;;;;6153203;23;20025;-94
2021/12/29 06:27:35;;;;;;;95.40;16.88;;;7.60;99.90;;;;;;6143649;23;20096;-95
2021/12/29 06:30:01;;;;;;;79.93;16.08;;;7.70;99.90;;;;;;6168891;23;20322;-95
2021/12/29 06:32:27;;;;;;;95.10;17.60;;;7.80;99.90;;;;;;6143026;23;20029;-95
2021/12/29 06:34:54;;;;;;;102.80;17.27;;;7.90;99.90;;;;;;6146400;23;20320;-96
2021/12/29 06:37:20;;;;;;;92.10;16.52;;;7.60;99.90;;;;;;6194746;23;20021;-94
2021/12/29 06:39:48;;;;;;;113.10;18.10;;;7.90;99.90;;;;;;6137505;23;20507;-95
2021/12/29 06:42:16;;;;;;;82.50;16.77;;;7.60;99.90;;;;;;6137705;23;20024;-95
2021/12/29 06:44:43;;;;;;;101.00;16.60;;;7.70;99.90;;;;;;6137957;23;20095;-95
2021/12/29 06:47:09;;;;;;;100.40;16.67;;;7.80;99.90;;;;;;6148428;23;20416;-93
2021/12/29 06:49:37;;;;;;;95.82;16.08;;;7.70;99.90;;;;;;6197455;23;20017;-94
2021/12/29 06:52:04;;;;;;;97.07;16.65;;;7.70;99.90;;;;;;6154403;23;20053;-92
2021/12/29 06:54:34;;;;;;;89.28;16.13;;;7.70;99.90;;;;;;6178626;23;20047;-96
2021/12/29 06:57:00;;;;;;;78.13;14.90;;;7.80;99.90;;;;;;6203433;23;20021;-94
2021/12/29 06:59:30;;;;;;;90.80;14.93;;;7.80;99.90;;;;;;6184730;23;20029;-96
2021/12/29 07:01:58;;;;;;;101.57;16.60;;;7.80;99.90;;;;;;6207461;23;20012;-96
2021/12/29 07:04:24;;;;;;;86.45;14.85;;;7.90;99.90;;;;;;6203469;23;20024;-95
2021/12/29 07:06:51;;;;;;;81.13;15.40;;;7.70;99.90;;;;;;6178430;23;20020;-96
2021/12/29 07:09:17;;;;;;;77.13;14.70;;;8.00;99.90;;;;;;6180176;23;20005;-95
2021/12/29 07:11:46;;;;;;;84.95;15.57;;;8.00;99.90;;;;;;6202947;23;20024;-94
2021/12/29 07:14:19;;;;;;;99.72;15.98;;;7.70;99.90;;;;;;6208259;23;20028;-94
2021/12/29 07:16:47;;;;;;;81.72;15.98;;;7.90;99.90;;;;;;6214313;23;20049;-93
2021/12/29 07:19:13;;;;;;;67.30;14.30;;;7.80;99.90;;;;;;6209772;22;20009;-94
2021/12/29 07:21:45;;;;;;;94.93;16.25;;;7.70;99.90;;;;;;6208372;23;20072;-92
2021/12/29 07:24:16;;;;;;;102.40;15.55;;;7.70;99.90;;;;;;6218807;23;20036;-92
2021/12/29 07:26:47;;;;;;;103.03;17.08;;;7.80;99.90;;;;;;6241468;22;20320;-94
2021/12/29 07:29:29;;;;;;;116.43;16.58;;;7.70;99.90;;;;;;6197129;22;20026;31
2021/12/29 07:35:04;;;;;;;79.03;15.95;;;7.80;99.90;;;;;;6285408;22;20024;-96
2021/12/29 07:37:41;;;;;;;106.10;16.13;;;7.80;99.90;;;;;;6248941;22;20035;31
2021/12/29 07:40:13;;;;;;;93.00;15.88;;;7.60;99.90;;;;;;6209075;23;20009;-94
2021/12/29 07:42:40;;;;;;;65.25;14.23;;;7.90;99.90;;;;;;6199688;23;20047;-96
2021/12/29 07:45:10;;;;;;;86.68;15.40;;;7.80;99.90;;;;;;6178917;23;20021;-95
2021/12/29 07:47:45;;;;;;;69.45;13.55;;;7.70;99.90;;;;;;6207050;23;20017;-96
2021/12/29 07:50:11;;;;;;;67.47;13.40;;;7.70;99.90;;;;;;6180370;23;20041;-96
2021/12/29 07:52:37;;;;;;;66.15;12.98;;;8.00;99.90;;;;;;6207491;22;20044;-96
2021/12/29 07:55:03;;;;;;;54.55;11.63;;;7.70;99.90;;;;;;6184435;23;20024;-93
2021/12/29 07:57:31;;;;;;;64.50;12.38;;;7.80;99.90;;;;;;6188027;22;20004;-95
2021/12/29 07:59:57;;;;;;;62.22;12.35;;;7.90;99.90;;;;;;6182707;23;20021;-95
2021/12/29 08:02:27;;;;;;;58.38;11.73;;;7.90;99.90;;;;;;6209587;23;20036;-96
2021/12/29 08:04:55;;;;;;;47.25;11.93;;;7.80;99.90;;;;;;6208379;23;20032;-94
2021/12/29 08:07:21;;;;;;;76.95;12.73;;;7.90;99.90;;;;;;6183919;23;20024;-95
2021/12/29 08:09:48;;;;;;;59.63;13.00;;;7.90;99.90;;;;;;6209985;23;20021;-96
2021/12/29 08:12:15;;;;;;;57.42;12.88;;;7.90;99.90;;;;;;6204057;23;20035;-94
2021/12/29 08:14:40;;;;;;;47.90;11.50;;;7.90;99.90;;;;;;6172954;23;20028;-96
2021/12/29 08:17:07;;;;;;;75.25;12.77;;;7.90;99.90;;;;;;6176281;23;20032;-93
2021/12/29 08:19:33;;;;;;;68.53;11.98;;;7.90;99.90;;;;;;6183778;23;20016;-95
2021/12/29 08:21:59;;;;;;;69.03;12.68;;;8.00;99.90;;;;;;6168654;23;20021;-96
2021/12/29 08:24:29;;;;;;;100.90;13.85;;;8.10;99.90;;;;;;6144270;23;20109;-96
2021/12/29 08:31:25;;;;;;;357.52;32.90;;;7.90;99.90;;;;;;6086029;23;20017;-94
2021/12/29 08:34:57;;;;;;;280.30;22.20;;;7.90;99.90;;;;;;5106090;27;2972056;-96
2021/12/29 08:37:23;;;;;;;117.10;15.00;;;8.20;99.90;;;;;;5155915;27;20487;-94
2021/12/29 08:39:54;;;;;;;119.95;16.15;;;8.00;99.90;;;;;;5174446;27;20022;-95
2021/12/29 08:42:19;;;;;;;105.30;15.15;;;7.90;99.90;;;;;;5151952;27;20054;-95
2021/12/29 08:44:45;;;;;;;123.38;15.90;;;8.00;99.90;;;;;;5160776;27;20069;-95
2021/12/29 08:47:11;;;;;;;121.90;15.32;;;8.20;99.90;;;;;;5137304;27;20372;-94
2021/12/29 08:49:37;;;;;;;115.50;14.32;;;8.00;99.90;;;;;;5154711;27;20049;-95
2021/12/29 08:52:03;;;;;;;128.40;15.20;;;8.00;99.90;;;;;;5142824;27;20031;-96
2021/12/29 08:54:39;;;;;;;94.63;14.05;;;8.10;99.90;;;;;;5142978;27;20039;-94
2021/12/29 08:57:06;;;;;;;96.70;14.48;;;8.10;99.90;;;;;;5143795;27;20094;-96
2021/12/29 08:59:32;;;;;;;95.68;14.13;;;8.20;99.90;;;;;;5139242;27;20038;-95
2021/12/29 09:01:58;;;;;;;116.85;13.68;;;8.10;99.90;;;;;;5161558;27;20121;-96
2021/12/29 09:04:24;;;;;;;95.28;14.20;;;8.00;99.90;;;;;;5137514;27;20131;-95
2021/12/29 09:06:50;;;;;;;123.95;15.57;;;8.20;99.90;;;;;;5137230;27;20053;-93
2021/12/29 09:09:15;;;;;;;114.68;14.63;;;8.20;99.90;;;;;;5150880;27;20037;-91
2021/12/29 09:11:41;;;;;;;93.63;13.95;;;8.30;99.90;;;;;;5133654;27;20373;-92
2021/12/29 09:14:07;;;;;;;76.32;13.20;;;8.20;99.90;;;;;;5135530;27;20042;-93
2021/12/29 09:16:33;;;;;;;76.55;13.85;;;8.50;99.90;;;;;;5135851;27;20098;-90
2021/12/29 09:18:59;;;;;;;83.80;13.77;;;8.30;99.90;;;;;;5136333;27;20467;-92
2021/12/29 09:21:27;;;;;;;98.15;14.30;;;8.30;99.90;;;;;;5154376;27;20042;-94
2021/12/29 09:23:52;;;;;;;78.10;14.75;;;8.30;99.90;;;;;;5152643;27;20058;-92
2021/12/29 09:26:19;;;;;;;80.53;13.98;;;8.30;99.90;;;;;;5135428;27;20506;-91
2021/12/29 09:28:47;;;;;;;137.93;17.05;;;8.30;99.90;;;;;;5135830;27;20046;-91
2021/12/29 09:31:15;;;;;;;58.45;13.07;;;8.30;99.90;;;;;;5132618;27;20046;-92
2021/12/29 09:33:42;;;;;;;60.25;12.77;;;8.50;99.90;;;;;;5134796;27;20107;-93
2021/12/29 09:36:08;;;;;;;54.88;13.70;;;8.20;99.90;;;;;;5135395;27;20038;-90
2021/12/29 09:38:35;;;;;;;57.33;12.75;;;8.30;99.90;;;;;;5152474;27;20056;-92
2021/12/29 09:41:03;;;;;;;58.72;13.35;;;8.30;99.90;;;;;;5135331;27;20446;-92
2021/12/29 09:43:29;;;;;;;51.05;12.10;;;8.20;99.90;;;;;;5102381;28;20047;-94
2021/12/29 09:45:55;;;;;;;61.33;12.65;;;8.50;99.90;;;;;;5091119;28;20557;-94
2021/12/29 09:48:21;;;;;;;68.35;12.35;;;8.40;99.90;;;;;;5074894;28;20043;-94
2021/12/29 09:50:48;;;;;;;46.53;11.73;;;8.30;99.90;;;;;;5085569;28;20048;-94
2021/12/29 09:53:16;;;;;;;55.72;11.70;;;8.30;99.90;;;;;;5069194;28;20051;-92
2021/12/29 09:55:44;;;;;;;32.05;9.75;;;8.50;99.90;;;;;;5070970;28;20449;-95
2021/12/29 09:58:10;;;;;;;42.55;11.45;;;8.30;99.90;;;;;;5083294;28;20122;-94
2021/12/29 10:00:48;;;;;;;51.15;12.43;;;8.50;99.90;;;;;;5072085;28;20453;-94
2021/12/29 10:03:16;;;;;;;41.72;10.38;;;8.40;99.90;;;;;;5086189;28;20446;-95
2021/12/29 10:05:47;;;;;;;32.17;10.60;;;8.50;99.90;;;;;;5080165;28;20036;-93
2021/12/29 10:08:17;;;;;;;34.42;10.35;;;8.60;99.90;;;;;;5071298;28;20089;-93
2021/12/29 10:10:58;;;;;;;45.45;11.43;;;8.60;99.90;;;;;;5089138;28;20082;-94
2021/12/29 10:13:28;;;;;;;45.38;12.30;;;8.70;99.90;;;;;;5077172;28;20498;-95
2021/12/29 10:16:10;;;;;;;44.63;12.10;;;8.80;99.90;;;;;;5072150;28;20134;-93
2021/12/29 10:18:40;;;;;;;46.45;11.45;;;8.80;99.90;;;;;;5067446;28;20044;-94
2021/12/29 10:21:19;;;;;;;38.10;10.95;;;8.80;99.90;;;;;;5072102;28;20385;-95
2021/12/29 10:23:47;;;;;;;38.40;10.73;;;8.70;99.90;;;;;;5071779;28;20039;-94
2021/12/29 10:26:28;;;;;;;43.63;10.52;;;8.60;99.90;;;;;;5073014;28;20039;-95
2021/12/29 10:28:56;;;;;;;;;;;8.50;99.90;;;;;;5068800;28;20055;-93
2021/12/29 10:31:28;;;;;;;57.95;10.60;;;8.80;99.90;;;;;;5077113;28;19962;-93
2021/12/29 10:33:57;;;;;;;47.30;10.57;;;8.40;99.90;;;;;;5067611;28;20055;-95
2021/12/29 10:36:37;;;;;;;36.53;9.10;;;8.30;99.90;;;;;;5072061;28;20142;-96
2021/12/29 10:39:17;;;;;;;45.40;9.75;;;8.40;99.90;;;;;;5077745;28;20086;-95
2021/12/29 10:42:04;;;;;;;48.15;9.98;;;8.40;99.90;;;;;;5071331;28;20489;-94
2021/12/29 10:44:32;;;;;;;43.95;10.48;;;8.40;99.90;;;;;;5072496;28;20039;-93
2021/12/29 10:48:24;;;;;;;61.58;11.18;;;8.40;99.90;;;;;;5139883;27;1427924;-93
2021/12/29 10:51:08;;;;;;;42.10;9.25;;;8.50;99.90;;;;;;5082165;28;20044;-94
2021/12/29 10:53:37;;;;;;;44.85;9.95;;;8.40;99.90;;;;;;5101416;28;20121;-95
2021/12/29 10:56:03;;;;;;;33.22;8.85;;;8.60;99.90;;;;;;5096197;28;20070;-93
2021/12/29 10:58:33;;;;;;;47.78;10.32;;;8.70;99.90;;;;;;5086762;28;20048;-94
2021/12/29 11:01:08;;;;;;;45.22;10.43;;;8.60;99.90;;;;;;5124789;28;20045;-96
2021/12/29 11:03:42;;;;;;;44.33;10.20;;;8.60;99.90;;;;;;5138308;27;20032;-94
2021/12/29 11:06:13;;;;;;;41.40;8.90;;;8.80;99.90;;;;;;5141138;27;20031;-95
2021/12/29 11:08:53;;;;;;;38.08;9.35;;;8.60;99.90;;;;;;5129043;28;20048;-96
2021/12/29 11:11:53;;;;;;;39.65;9.45;;;8.50;99.90;;;;;;5122793;28;20057;-95
2021/12/29 11:14:31;;;;;;;35.72;8.98;;;8.70;99.90;;;;;;4991539;28;20051;-96
2021/12/29 11:17:02;;;;;;;27.80;8.32;;;8.70;99.90;;;;;;4975648;28;20085;-95
2021/12/29 11:19:28;;;;;;;30.25;8.82;;;8.80;99.90;;;;;;4976554;28;20046;-96
2021/12/29 11:22:08;;;;;;;36.05;8.63;;;8.80;99.90;;;;;;4993861;28;20084;-96
2021/12/29 11:24:34;;;;;;;36.42;9.10;;;8.80;99.90;;;;;;4980258;28;20098;-95
2021/12/29 11:27:08;;;;;;;40.72;9.27;;;8.70;99.90;;;;;;5005261;28;20034;-96
2021/12/29 11:29:34;;;;;;;33.78;8.77;;;8.70;99.90;;;;;;4980914;28;20061;-96
2021/12/29 11:32:11;;;;;;;38.38;9.18;;;8.60;99.90;;;;;;4984269;28;20050;-96
2021/12/29 11:34:37;;;;;;;45.38;8.60;;;8.70;99.90;;;;;;4983702;28;20539;-95
2021/12/29 11:37:05;;;;;;;36.67;7.70;;;8.80;99.90;;;;;;4983190;28;20508;-96
2021/12/29 11:39:38;;;;;;;44.85;9.68;;;8.70;99.90;;;;;;5004163;28;20050;-96
2021/12/29 11:42:04;;;;;;;47.78;8.80;;;8.60;99.90;;;;;;4988740;28;20051;-96
2021/12/29 11:44:30;;;;;;;40.67;9.63;;;8.70;99.90;;;;;;4987502;28;20046;-96
2021/12/29 11:46:56;;;;;;;43.30;9.38;;;8.70;99.90;;;;;;5002174;28;20073;-95
2021/12/29 11:49:23;;;;;;;43.00;9.85;;;8.60;99.90;;;;;;5002884;28;20050;-96
2021/12/29 11:52:31;;;;;;;41.25;9.50;;;8.70;99.90;;;;;;5110675;28;20136;-96
2021/12/29 11:55:08;;;;;;;32.05;8.48;;;8.70;99.90;;;;;;5125724;28;20055;-96
2021/12/29 11:57:38;;;;;;;45.05;9.75;;;8.70;99.90;;;;;;5122567;28;20044;-94
2021/12/29 12:00:17;;;;;;;41.20;10.23;;;8.60;99.90;;;;;;5098616;28;20047;-94
2021/12/29 12:02:55;;;;;;;38.40;9.40;;;8.60;99.90;;;;;;5124861;27;20047;-96
2021/12/29 12:05:33;;;;;;;50.15;11.80;;;8.60;99.90;;;;;;5093522;28;20039;-96
2021/12/29 12:08:10;;;;;;;47.75;11.25;;;8.60;99.90;;;;;;5084380;28;20036;-96
2021/12/29 12:10:38;;;;;;;37.42;10.82;;;8.60;99.90;;;;;;5094712;28;20058;-96
2021/12/29 12:13:20;;;;;;;34.28;10.45;;;8.60;99.90;;;;;;5096433;28;20047;-96
2021/12/29 12:15:49;;;;;;;33.80;10.18;;;8.50;99.90;;;;;;5094704;28;20060;-96
2021/12/29 12:18:41;;;;;;;47.97;11.25;;;8.70;99.90;;;;;;5118825;22;20060;-96
2021/12/29 12:21:06;;;;;;;41.83;11.65;;;8.60;99.90;;;;;;5083903;28;20060;-96
2021/12/29 12:23:32;;;;;;;38.63;11.63;;;8.70;99.90;;;;;;5104560;28;20074;-96
2021/12/29 12:26:10;;;;;;;41.47;12.43;;;8.70;99.90;;;;;;5096428;28;20161;-96
2021/12/29 12:28:52;;;;;;;41.65;12.68;;;8.50;99.90;;;;;;5094805;28;20044;-96
2021/12/29 12:31:29;;;;;;;39.35;12.20;;;8.60;99.90;;;;;;5084734;28;20295;-96
2021/12/29 12:34:10;;;;;;;51.38;12.40;;;8.60;99.90;;;;;;5083760;28;20067;-96
2021/12/29 12:36:42;;;;;;;125.80;26.67;;;8.60;99.90;;;;;;5080767;28;20037;-94
2021/12/29 12:39:17;;;;;;;49.63;12.80;;;8.60;99.90;;;;;;5069933;28;20072;-94
2021/12/29 12:41:50;;;;;;;42.28;13.40;;;8.70;99.90;;;;;;5072934;28;20079;-96
2021/12/29 12:44:19;;;;;;;48.65;14.05;;;8.80;99.90;;;;;;5093065;28;20123;-96
2021/12/29 12:46:52;;;;;;;44.72;13.48;;;8.80;99.90;;;;;;5075349;28;20033;-96
2021/12/29 12:49:52;;;;;;;70.18;15.63;;;8.60;99.90;;;;;;5046532;22;20057;-96
2021/12/29 12:52:42;;;;;;;44.80;14.77;;;8.60;99.90;;;;;;5029977;28;20053;-96
2021/12/29 12:55:12;;;;;;;50.22;15.07;;;8.50;99.90;;;;;;5052978;28;20029;-96
2021/12/29 12:57:48;;;;;;;48.80;16.33;;;8.50;99.90;;;;;;5038077;28;20557;-93
2021/12/29 13:00:27;;;;;;;36.85;14.20;;;8.50;99.90;;;;;;5031296;28;20071;-96
2021/12/29 13:02:59;;;;;;;49.08;15.07;;;8.50;99.90;;;;;;5036201;28;20380;-96
2021/12/29 13:05:29;;;;;;;56.45;16.20;;;8.50;99.90;;;;;;5027691;28;20129;-96
2021/12/29 13:08:10;;;;;;;45.70;15.60;;;8.40;99.90;;;;;;5029476;28;20479;-95
2021/12/29 13:10:42;;;;;;;48.67;16.67;;;8.40;99.90;;;;;;5012179;28;20045;-96
2021/12/29 13:13:21;;;;;;;62.13;17.80;;;8.40;99.90;;;;;;5014087;28;20132;-97
2021/12/29 13:15:59;;;;;;;57.55;21.00;;;8.50;99.90;;;;;;5015449;28;20077;-96
2021/12/29 13:18:26;;;;;;;48.88;19.15;;;8.40;99.90;;;;;;5015608;28;20141;-96
2021/12/29 13:21:41;;;;;;;45.63;18.45;;;8.40;99.90;;;;;;5066049;23;20428;-96
2021/12/29 13:24:12;;;;;;;51.15;21.25;;;8.40;99.90;;;;;;5121480;22;20040;-96
2021/12/29 13:26:45;;;;;;;47.40;17.80;;;8.40;99.90;;;;;;5078178;28;20056;-96
2021/12/29 13:29:17;;;;;;;46.35;19.02;;;8.40;99.90;;;;;;5075446;28;20051;-96
2021/12/29 13:31:43;;;;;;;43.90;17.48;;;8.40;99.90;;;;;;5073403;28;20052;-96
2021/12/29 13:34:09;;;;;;;45.38;17.17;;;8.40;99.90;;;;;;5092297;28;20043;-96
2021/12/29 13:36:35;;;;;;;41.00;16.73;;;8.40;99.90;;;;;;5187787;22;20099;-96
2021/12/29 13:39:02;;;;;;;49.45;17.88;;;8.40;99.90;;;;;;5072453;28;20052;-96
2021/12/29 13:41:38;;;;;;;47.13;17.27;;;8.30;99.90;;;;;;5072609;28;20053;-96
2021/12/29 13:44:07;;;;;;;50.25;18.38;;;8.40;99.90;;;;;;5077910;28;20035;-95
2021/12/29 13:46:43;;;;;;;41.55;18.58;;;8.30;99.90;;;;;;5075914;28;20032;-96
2021/12/29 13:49:13;;;;;;;43.58;17.67;;;8.30;99.90;;;;;;5147289;22;20044;-96
2021/12/29 13:51:45;;;;;;;45.00;18.42;;;8.30;99.90;;;;;;5096375;28;20383;-95